createdAt,value
2018-04-28T00:00:40.325Z,0
2018-04-28T00:01:50.333Z,0
2018-04-28T00:03:00.333Z,0
2018-04-28T00:04:09.539Z,0
2018-04-28T00:05:19.278Z,0
2018-04-28T00:06:29.291Z,0
2018-04-28T00:07:38.767Z,0
2018-04-28T00:08:48.769Z,0
2018-04-28T00:09:58.771Z,0
2018-04-28T00:11:07.990Z,0
2018-04-28T00:12:17.999Z,0
2018-04-28T00:13:27.742Z,0
2018-04-28T00:14:37.751Z,0
2018-04-28T00:15:47.486Z,0
2018-04-28T00:16:57.252Z,0
2018-04-28T00:18:06.743Z,0
2018-04-28T00:19:16.750Z,0
2018-04-28T00:20:26.753Z,0
2018-04-28T00:21:36.755Z,0
2018-04-28T00:22:46.775Z,0
2018-04-28T00:23:56.783Z,0
2018-04-28T00:25:06.521Z,0
2018-04-28T00:26:16.259Z,0
2018-04-28T00:27:26.292Z,0
2018-04-28T00:28:36.300Z,0
2018-04-28T00:29:46.299Z,0
2018-04-28T00:30:55.768Z,0
2018-04-28T00:32:05.783Z,0
2018-04-28T00:33:15.789Z,0
2018-04-28T00:34:25.016Z,0
2018-04-28T00:35:35.024Z,0
2018-04-28T00:36:45.031Z,0
2018-04-28T00:37:54.768Z,0
2018-04-28T00:39:04.240Z,0
2018-04-28T00:40:14.245Z,0
2018-04-28T00:41:23.985Z,0
2018-04-28T00:42:33.186Z,0
2018-04-28T00:43:43.188Z,0
2018-04-28T00:44:53.194Z,0
2018-04-28T00:46:02.664Z,0
2018-04-28T00:47:12.418Z,0
2018-04-28T00:48:22.207Z,0
2018-04-28T00:49:31.963Z,0
2018-04-28T00:50:41.984Z,0
2018-04-28T00:51:52.037Z,0
2018-04-28T00:53:01.513Z,0
2018-04-28T00:54:10.983Z,0
2018-04-28T00:55:20.988Z,0
2018-04-28T00:56:30.996Z,0
2018-04-28T00:57:41.005Z,0
2018-04-28T00:58:51.008Z,0
2018-04-28T01:00:01.012Z,0
2018-04-28T01:01:10.481Z,0
2018-04-28T01:02:20.491Z,0
2018-04-28T01:03:30.243Z,0
2018-04-28T01:04:39.445Z,0
2018-04-28T01:05:49.189Z,0
2018-04-28T01:06:59.252Z,0
2018-04-28T01:08:08.463Z,0
2018-04-28T01:09:18.472Z,0
2018-04-28T01:10:27.950Z,0
2018-04-28T01:11:37.415Z,0
2018-04-28T01:12:47.426Z,0
2018-04-28T01:13:57.430Z,0
2018-04-28T01:15:07.167Z,0
2018-04-28T01:16:16.902Z,0
2018-04-28T01:17:27.006Z,0
2018-04-28T01:18:37.015Z,0
2018-04-28T01:19:46.484Z,0
2018-04-28T01:20:56.218Z,0
2018-04-28T01:22:06.221Z,0
2018-04-28T01:23:15.958Z,0
2018-04-28T01:24:26.032Z,0
2018-04-28T01:25:35.772Z,0
2018-04-28T01:26:45.513Z,0
2018-04-28T01:27:55.251Z,0
2018-04-28T01:29:04.994Z,0
2018-04-28T01:30:14.993Z,0
2018-04-28T01:31:24.728Z,0
2018-04-28T01:32:34.465Z,0
2018-04-28T01:33:44.468Z,0
2018-04-28T01:34:53.936Z,0
2018-04-28T01:36:03.419Z,0
2018-04-28T01:37:13.440Z,0
2018-04-28T01:38:23.442Z,0
2018-04-28T01:39:33.187Z,0
2018-04-28T01:40:43.195Z,0
2018-04-28T01:41:53.203Z,0
2018-04-28T01:43:02.946Z,0
2018-04-28T01:44:12.418Z,0
2018-04-28T01:45:22.160Z,0
2018-04-28T01:46:32.170Z,0
2018-04-28T01:47:41.636Z,0
2018-04-28T01:48:51.381Z,0
2018-04-28T01:50:00.855Z,0
2018-04-28T01:51:10.858Z,0
2018-04-28T01:52:20.619Z,0
2018-04-28T01:53:30.357Z,0
2018-04-28T01:54:39.828Z,0
2018-04-28T01:55:49.301Z,0
2018-04-28T01:56:58.770Z,0
2018-04-28T01:58:08.245Z,0
2018-04-28T01:59:18.259Z,0
2018-04-28T02:00:28.013Z,0
2018-04-28T02:01:38.026Z,0
2018-04-28T02:02:47.766Z,0
2018-04-28T02:03:57.772Z,0
2018-04-28T02:05:07.243Z,0
2018-04-28T02:06:16.988Z,0
2018-04-28T02:07:26.733Z,0
2018-04-28T02:08:36.480Z,0
2018-04-28T02:09:46.483Z,0
2018-04-28T02:10:56.229Z,0
2018-04-28T02:12:06.061Z,0
2018-04-28T02:13:16.065Z,0
2018-04-28T02:14:26.073Z,0
2018-04-28T02:15:35.926Z,0
2018-04-28T02:16:45.127Z,0
2018-04-28T02:17:54.332Z,0
2018-04-28T02:19:04.337Z,0
2018-04-28T02:20:13.810Z,0
2018-04-28T02:21:23.865Z,0
2018-04-28T02:22:33.338Z,0
2018-04-28T02:23:43.082Z,0
2018-04-28T02:24:52.551Z,0
2018-04-28T02:26:02.298Z,0
2018-04-28T02:27:12.058Z,0
2018-04-28T02:28:22.071Z,0
2018-04-28T02:29:31.005Z,0
2018-04-28T02:30:40.746Z,0
2018-04-28T02:31:50.795Z,0
2018-04-28T02:33:00.277Z,0
2018-04-28T02:34:10.094Z,4
2018-04-28T02:35:19.579Z,4
2018-04-28T02:36:29.059Z,0
2018-04-28T02:37:39.077Z,0
2018-04-28T02:38:48.825Z,4
2018-04-28T02:39:58.569Z,4
2018-04-28T02:41:07.780Z,4
2018-04-28T02:42:17.783Z,4
2018-04-28T02:43:27.871Z,4
2018-04-28T02:44:37.942Z,4
2018-04-28T02:45:47.431Z,8
2018-04-28T02:46:57.443Z,8
2018-04-28T02:48:07.454Z,8
2018-04-28T02:49:17.490Z,12
2018-04-28T02:50:27.496Z,12
2018-04-28T02:51:37.253Z,12
2018-04-28T02:52:47.264Z,16
2018-04-28T02:53:57.001Z,16
2018-04-28T02:55:06.763Z,20
2018-04-28T02:56:16.768Z,24
2018-04-28T02:57:26.241Z,24
2018-04-28T02:58:35.720Z,28
2018-04-28T02:59:45.735Z,32
2018-04-28T03:03:30.892Z,44
2018-04-28T03:04:40.471Z,48
2018-04-28T03:05:50.480Z,52
2018-04-28T03:07:00.223Z,60
2018-04-28T03:08:09.694Z,68
2018-04-28T03:09:19.703Z,76
2018-04-28T03:10:29.467Z,84
2018-04-28T03:11:39.471Z,92
2018-04-28T03:12:49.476Z,100
2018-04-28T03:13:59.485Z,108
2018-04-28T03:15:08.683Z,116
2018-04-28T03:16:18.435Z,128
2018-04-28T03:17:28.168Z,136
2018-04-28T03:18:37.633Z,148
2018-04-28T03:19:47.108Z,160
2018-04-28T03:20:56.845Z,176
2018-04-28T03:22:06.609Z,188
2018-04-28T03:23:15.805Z,200
2018-04-28T03:24:25.823Z,216
2018-04-28T03:25:35.699Z,232
2018-04-28T03:26:45.433Z,252
2018-04-28T03:27:55.164Z,272
2018-04-28T03:29:05.167Z,292
2018-04-28T03:30:14.918Z,316
2018-04-28T03:31:24.663Z,336
2018-04-28T03:32:34.666Z,356
2018-04-28T03:33:44.404Z,380
2018-04-28T03:34:54.415Z,408
2018-04-28T03:36:04.156Z,436
2018-04-28T03:37:13.896Z,460
2018-04-28T03:38:23.654Z,484
2018-04-28T03:39:33.389Z,516
2018-04-28T03:40:43.393Z,544
2018-04-28T03:41:53.394Z,580
2018-04-28T03:43:03.138Z,604
2018-04-28T03:44:13.143Z,624
2018-04-28T03:45:22.879Z,644
2018-04-28T03:46:32.622Z,676
2018-04-28T03:47:42.624Z,708
2018-04-28T03:48:52.379Z,744
2018-04-28T03:50:02.392Z,772
2018-04-28T03:51:12.394Z,804
2018-04-28T03:52:22.415Z,836
2018-04-28T03:53:32.587Z,884
2018-04-28T03:54:42.807Z,924
2018-04-28T03:55:52.557Z,952
2018-04-28T03:57:02.295Z,980
2018-04-28T03:58:11.771Z,1028
2018-04-28T03:59:21.513Z,1076
2018-04-28T04:00:31.243Z,1100
2018-04-28T04:01:41.256Z,1108
2018-04-28T04:02:51.263Z,1112
2018-04-28T04:04:01.268Z,1112
2018-04-28T04:05:11.001Z,1116
2018-04-28T04:06:21.011Z,1124
2018-04-28T04:07:31.012Z,1152
2018-04-28T04:08:41.015Z,1192
2018-04-28T04:09:51.092Z,1228
2018-04-28T04:11:00.834Z,1260
2018-04-28T04:12:10.304Z,1300
2018-04-28T04:13:20.140Z,1340
2018-04-28T04:14:29.875Z,1368
2018-04-28T04:15:39.888Z,1388
2018-04-28T04:16:49.892Z,1400
2018-04-28T04:17:59.363Z,1416
2018-04-28T04:19:09.111Z,1432
2018-04-28T04:20:18.582Z,1452
2018-04-28T04:21:28.318Z,1464
2018-04-28T04:22:38.056Z,1476
2018-04-28T04:23:47.793Z,1488
2018-04-28T04:24:57.797Z,1512
2018-04-28T04:26:07.348Z,1540
2018-04-28T04:27:16.812Z,1564
2018-04-28T04:28:26.549Z,1584
2018-04-28T04:29:36.288Z,1604
2018-04-28T04:30:46.302Z,1624
2018-04-28T04:31:55.784Z,1632
2018-04-28T04:33:05.338Z,1640
2018-04-28T04:34:15.346Z,1652
2018-04-28T04:35:24.817Z,1676
2018-04-28T04:36:34.900Z,1712
2018-04-28T04:37:44.749Z,1732
2018-04-28T04:38:54.532Z,1752
2018-04-28T04:40:04.341Z,1780
2018-04-28T04:41:14.423Z,1820
2018-04-28T04:42:24.476Z,1856
2018-04-28T04:43:34.478Z,1884
2018-04-28T04:44:44.294Z,1920
2018-04-28T04:45:54.038Z,1972
2018-04-28T04:47:03.509Z,2012
2018-04-28T04:48:13.526Z,2048
2018-04-28T04:49:23.542Z,2072
2018-04-28T04:50:33.372Z,2108
2018-04-28T04:51:43.378Z,2152
2018-04-28T04:52:53.122Z,2200
2018-04-28T04:54:03.123Z,2252
2018-04-28T04:55:12.866Z,2304
2018-04-28T04:56:22.642Z,2360
2018-04-28T04:57:32.647Z,2392
2018-04-28T04:58:42.386Z,2416
2018-04-28T04:59:52.121Z,2404
2018-04-28T05:01:01.865Z,2412
2018-04-28T05:02:11.603Z,2436
2018-04-28T05:03:21.609Z,2456
2018-04-28T05:04:31.080Z,2488
2018-04-28T05:05:40.543Z,2540
2018-04-28T05:06:50.548Z,2592
2018-04-28T05:08:00.283Z,2640
2018-04-28T05:09:10.298Z,2676
2018-04-28T05:10:20.037Z,2720
2018-04-28T05:11:29.612Z,2756
2018-04-28T05:12:39.355Z,2748
2018-04-28T05:13:49.097Z,2724
2018-04-28T05:14:58.832Z,2712
2018-04-28T05:16:08.572Z,2704
2018-04-28T05:17:18.397Z,2700
2018-04-28T05:18:28.410Z,2688
2018-04-28T05:19:38.413Z,2688
2018-04-28T05:20:48.414Z,2708
2018-04-28T05:21:58.415Z,2708
2018-04-28T05:23:08.153Z,2688
2018-04-28T05:24:18.160Z,2660
2018-04-28T05:25:28.166Z,2640
2018-04-28T05:26:37.899Z,2708
2018-04-28T05:27:47.649Z,2748
2018-04-28T05:28:57.396Z,2668
2018-04-28T05:30:07.406Z,2784
2018-04-28T05:31:17.414Z,3084
2018-04-28T05:32:27.418Z,3388
2018-04-28T05:33:37.422Z,3708
2018-04-28T05:34:47.256Z,3784
2018-04-28T05:35:57.407Z,3908
2018-04-28T05:37:06.922Z,4076
2018-04-28T05:38:16.937Z,4044
2018-04-28T05:39:26.670Z,3764
2018-04-28T05:40:36.404Z,3384
2018-04-28T05:41:46.151Z,3104
2018-04-28T05:42:55.886Z,2972
2018-04-28T05:44:05.885Z,2696
2018-04-28T05:45:15.887Z,2340
2018-04-28T05:46:26.186Z,2148
2018-04-28T05:47:35.934Z,2060
2018-04-28T05:48:45.937Z,2052
2018-04-28T05:49:55.945Z,2060
2018-04-28T05:51:05.413Z,2100
2018-04-28T05:52:15.230Z,2192
2018-04-28T05:53:25.245Z,2320
2018-04-28T05:54:35.252Z,2532
2018-04-28T05:55:45.259Z,2784
2018-04-28T05:56:54.726Z,3004
2018-04-28T05:58:04.196Z,3316
2018-04-28T05:59:14.208Z,3568
2018-04-28T06:00:24.209Z,3344
2018-04-28T06:01:34.003Z,3320
2018-04-28T06:02:44.002Z,3280
2018-04-28T06:03:53.750Z,3264
2018-04-28T06:05:03.482Z,3232
2018-04-28T06:06:12.960Z,3248
2018-04-28T06:07:22.713Z,3536
2018-04-28T06:08:32.715Z,4224
2018-04-28T06:09:42.724Z,4812
2018-04-28T06:10:52.730Z,5224
2018-04-28T06:12:02.749Z,5480
2018-04-28T06:13:11.685Z,5524
2018-04-28T06:14:21.538Z,5676
2018-04-28T06:15:31.275Z,6004
2018-04-28T06:16:40.751Z,6000
2018-04-28T06:17:50.488Z,6032
2018-04-28T06:19:00.227Z,6048
2018-04-28T06:20:09.712Z,5880
2018-04-28T06:21:19.641Z,5572
2018-04-28T06:22:29.639Z,5452
2018-04-28T06:23:39.377Z,5304
2018-04-28T06:24:49.116Z,5288
2018-04-28T06:25:59.245Z,5216
2018-04-28T06:27:09.421Z,4888
2018-04-28T06:28:19.164Z,4640
2018-04-28T06:29:28.902Z,4608
2018-04-28T06:30:38.919Z,4624
2018-04-28T06:31:48.395Z,4696
2018-04-28T06:32:58.400Z,4656
2018-04-28T06:34:08.472Z,4572
2018-04-28T06:35:18.482Z,4616
2018-04-28T06:36:28.556Z,4764
2018-04-28T06:37:38.564Z,4812
2018-04-28T06:38:48.574Z,5128
2018-04-28T06:39:58.583Z,5452
2018-04-28T06:41:08.429Z,5876
2018-04-28T06:42:18.527Z,6184
2018-04-28T06:43:28.539Z,6348
2018-04-28T06:44:38.331Z,6920
2018-04-28T06:45:48.331Z,7232
2018-04-28T06:46:58.069Z,7344
2018-04-28T06:48:07.548Z,7412
2018-04-28T06:49:17.550Z,7540
2018-04-28T06:50:27.291Z,7964
2018-04-28T06:51:37.296Z,8972
2018-04-28T06:52:47.036Z,9648
2018-04-28T06:53:56.773Z,9680
2018-04-28T06:55:06.509Z,9428
2018-04-28T06:56:16.534Z,9268
2018-04-28T06:57:26.545Z,9212
2018-04-28T06:58:36.853Z,9460
2018-04-28T06:59:46.786Z,9940
2018-04-28T07:00:56.538Z,8840
2018-04-28T07:02:06.558Z,8992
2018-04-28T07:03:16.297Z,8304
2018-04-28T07:04:26.033Z,7932
2018-04-28T07:05:35.846Z,8008
2018-04-28T07:06:45.589Z,8368
2018-04-28T07:07:55.597Z,8984
2018-04-28T07:09:05.333Z,8408
2018-04-28T07:10:15.077Z,7432
2018-04-28T07:11:24.815Z,7928
2018-04-28T07:12:34.558Z,9296
2018-04-28T07:13:44.573Z,8160
2018-04-28T07:14:54.315Z,9140
2018-04-28T07:16:04.321Z,7756
2018-04-28T07:17:14.061Z,7292
2018-04-28T07:18:24.077Z,7336
2018-04-28T07:19:33.658Z,7828
2018-04-28T07:20:43.413Z,7528
2018-04-28T07:21:53.423Z,7624
2018-04-28T07:23:03.428Z,7728
2018-04-28T07:24:12.640Z,7724
2018-04-28T07:25:22.382Z,6636
2018-04-28T07:26:32.383Z,6344
2018-04-28T07:27:41.585Z,6848
2018-04-28T07:28:51.326Z,7132
2018-04-28T07:30:01.329Z,8604
2018-04-28T07:31:10.803Z,8916
2018-04-28T07:32:20.544Z,9020
2018-04-28T07:33:30.545Z,9904
2018-04-28T07:34:40.347Z,9888
2018-04-28T07:35:50.100Z,10292
2018-04-28T07:36:59.841Z,10500
2018-04-28T07:38:09.047Z,10408
2018-04-28T07:39:19.057Z,10480
2018-04-28T07:40:28.797Z,7948
2018-04-28T07:41:38.800Z,9128
2018-04-28T07:42:48.804Z,9600
2018-04-28T07:43:58.547Z,10124
2018-04-28T07:45:08.284Z,10200
2018-04-28T07:46:18.035Z,9048
2018-04-28T07:47:28.041Z,8144
2018-04-28T07:48:38.054Z,8696
2018-04-28T07:49:48.075Z,8760
2018-04-28T07:50:58.083Z,7456
2018-04-28T07:52:08.098Z,6956
2018-04-28T07:53:17.833Z,6912
2018-04-28T07:54:27.891Z,7292
2018-04-28T07:55:37.091Z,6980
2018-04-28T07:56:46.559Z,6400
2018-04-28T07:57:56.568Z,6416
2018-04-28T07:59:06.304Z,7028
2018-04-28T08:00:16.148Z,7844
2018-04-28T08:01:26.270Z,8504
2018-04-28T08:02:36.281Z,8228
2018-04-28T08:03:46.020Z,6848
2018-04-28T08:04:56.037Z,6236
2018-04-28T08:06:05.792Z,6724
2018-04-28T08:07:15.967Z,8036
2018-04-28T08:08:25.983Z,9064
2018-04-28T08:09:35.995Z,8496
2018-04-28T08:10:45.734Z,7908
2018-04-28T08:11:55.580Z,8168
2018-04-28T08:13:05.591Z,6992
2018-04-28T08:14:14.793Z,6672
2018-04-28T08:15:24.709Z,7684
2018-04-28T08:16:34.456Z,7916
2018-04-28T08:17:44.462Z,7352
2018-04-28T08:18:54.470Z,7916
2018-04-28T08:20:04.482Z,9352
2018-04-28T08:21:13.683Z,10128
2018-04-28T08:22:23.684Z,10156
2018-04-28T08:23:33.705Z,9752
2018-04-28T08:24:43.175Z,9144
2018-04-28T08:25:52.924Z,8852
2018-04-28T08:27:02.927Z,9360
2018-04-28T08:28:12.405Z,8624
2018-04-28T08:29:22.145Z,8148
2018-04-28T08:30:32.150Z,8788
2018-04-28T08:31:41.894Z,10020
2018-04-28T08:32:51.907Z,10248
2018-04-28T08:34:01.912Z,9860
2018-04-28T08:35:11.118Z,9316
2018-04-28T08:36:21.120Z,9288
2018-04-28T08:37:31.060Z,9496
2018-04-28T08:38:40.874Z,8804
2018-04-28T08:39:50.354Z,8936
2018-04-28T08:41:00.364Z,9756
2018-04-28T08:42:09.839Z,9548
2018-04-28T08:43:19.843Z,9548
2018-04-28T08:44:29.584Z,9604
2018-04-28T08:45:39.883Z,9680
2018-04-28T08:46:49.944Z,9752
2018-04-28T08:47:59.952Z,9864
2018-04-28T08:49:09.698Z,10216
2018-04-28T08:50:19.447Z,10352
2018-04-28T08:51:29.455Z,9628
2018-04-28T08:52:39.464Z,9928
2018-04-28T08:53:49.213Z,10380
2018-04-28T08:54:59.219Z,10312
2018-04-28T08:56:08.425Z,10268
2018-04-28T08:57:18.430Z,10512
2018-04-28T08:58:28.173Z,10024
2018-04-28T08:59:37.922Z,9780
2018-04-28T09:00:47.929Z,9628
2018-04-28T09:01:57.941Z,9404
2018-04-28T09:03:07.429Z,9564
2018-04-28T09:04:16.901Z,9496
2018-04-28T09:05:26.645Z,9948
2018-04-28T09:06:36.659Z,10152
2018-04-28T09:07:46.673Z,9128
2018-04-28T09:08:56.692Z,8700
2018-04-28T09:10:06.703Z,10648
2018-04-28T09:11:16.499Z,11800
2018-04-28T09:12:26.238Z,11452
2018-04-28T09:13:35.986Z,8860
2018-04-28T09:14:45.998Z,7876
2018-04-28T09:15:55.758Z,8996
2018-04-28T09:17:05.556Z,11468
2018-04-28T09:18:15.347Z,13248
2018-04-28T09:19:24.909Z,12392
2018-04-28T09:20:34.114Z,12204
2018-04-28T09:21:43.325Z,12584
2018-04-28T09:22:52.532Z,13368
2018-04-28T09:24:02.278Z,14136
2018-04-28T09:25:12.020Z,14268
2018-04-28T09:26:21.331Z,13660
2018-04-28T09:27:30.934Z,12228
2018-04-28T09:28:40.413Z,11356
2018-04-28T09:29:49.619Z,11008
2018-04-28T09:30:59.639Z,9632
2018-04-28T09:32:09.386Z,8220
2018-04-28T09:33:19.129Z,8568
2018-04-28T09:34:29.137Z,9560
2018-04-28T09:35:38.878Z,10200
2018-04-28T09:36:48.891Z,10432
2018-04-28T09:37:58.896Z,10344
2018-04-28T09:39:08.108Z,9568
2018-04-28T09:40:18.113Z,8476
2018-04-28T09:41:27.850Z,8160
2018-04-28T09:42:37.595Z,8908
2018-04-28T09:43:47.610Z,10996
2018-04-28T09:44:57.420Z,11044
2018-04-28T09:46:07.166Z,10696
2018-04-28T09:47:17.174Z,11080
2018-04-28T09:48:27.189Z,11460
2018-04-28T09:49:36.925Z,11728
2018-04-28T09:50:47.016Z,12024
2018-04-28T09:51:57.109Z,12436
2018-04-28T09:53:06.934Z,12192
2018-04-28T09:54:16.945Z,12660
2018-04-28T09:55:26.965Z,12960
2018-04-28T09:56:36.971Z,13140
2018-04-28T09:57:46.981Z,13396
2018-04-28T09:58:56.556Z,13992
2018-04-28T10:00:06.334Z,14124
2018-04-28T10:01:15.275Z,14068
2018-04-28T10:02:25.069Z,13808
2018-04-28T10:03:34.811Z,14276
2018-04-28T10:04:44.819Z,14848
2018-04-28T10:05:54.749Z,15548
2018-04-28T10:07:04.372Z,16896
2018-04-28T10:08:14.384Z,17120
2018-04-28T10:09:24.399Z,16800
2018-04-28T10:10:34.154Z,15904
2018-04-28T10:11:44.181Z,14908
2018-04-28T10:12:54.398Z,14284
2018-04-28T10:14:03.606Z,15292
2018-04-28T10:15:13.348Z,15368
2018-04-28T10:16:23.358Z,18368
2018-04-28T10:17:33.364Z,16288
2018-04-28T10:18:43.118Z,13152
2018-04-28T10:19:52.690Z,12128
2018-04-28T10:21:02.710Z,10700
2018-04-28T10:22:12.183Z,10448
2018-04-28T10:23:22.191Z,12720
2018-04-28T10:24:32.294Z,12324
2018-04-28T10:25:41.768Z,11172
2018-04-28T10:26:51.781Z,12888
2018-04-28T10:28:01.793Z,12724
2018-04-28T10:29:11.814Z,12508
2018-04-28T10:30:21.827Z,13280
2018-04-28T10:31:31.566Z,13536
2018-04-28T10:32:41.052Z,13516
2018-04-28T10:33:50.795Z,12600
2018-04-28T10:35:00.280Z,12712
2018-04-28T10:36:09.757Z,13384
2018-04-28T10:37:19.500Z,14740
2018-04-28T10:38:29.292Z,14808
2018-04-28T10:39:39.041Z,14980
2018-04-28T10:40:48.515Z,15376
2018-04-28T10:41:58.258Z,15400
2018-04-28T10:43:07.996Z,16100
2018-04-28T10:44:17.740Z,16320
2018-04-28T10:45:27.482Z,16152
2018-04-28T10:46:37.489Z,15204
2018-04-28T10:47:47.234Z,14700
2018-04-28T10:48:57.293Z,15760
2018-04-28T10:50:07.305Z,15852
2018-04-28T10:51:17.061Z,16216
2018-04-28T10:52:27.086Z,16896
2018-04-28T10:53:37.037Z,17760
2018-04-28T10:54:46.742Z,17984
2018-04-28T10:55:56.758Z,17248
2018-04-28T10:57:06.774Z,16416
2018-04-28T10:58:16.797Z,16072
2018-04-28T10:59:26.597Z,16044
2018-04-28T11:00:36.340Z,16020
2018-04-28T11:01:46.104Z,16232
2018-04-28T11:02:56.146Z,16068
2018-04-28T11:04:05.893Z,16188
2018-04-28T11:05:15.907Z,16336
2018-04-28T11:06:26.156Z,16592
2018-04-28T11:07:35.907Z,16896
2018-04-28T11:08:45.927Z,17056
2018-04-28T11:09:55.934Z,17280
2018-04-28T11:11:05.947Z,17472
2018-04-28T11:12:15.428Z,17664
2018-04-28T11:13:25.130Z,17440
2018-04-28T11:14:34.568Z,17664
2018-04-28T11:15:44.314Z,17440
2018-04-28T11:16:54.334Z,17280
2018-04-28T11:18:04.085Z,17504
2018-04-28T11:19:13.613Z,17472
2018-04-28T11:20:23.628Z,17056
2018-04-28T11:21:33.372Z,16284
2018-04-28T11:22:43.121Z,15640
2018-04-28T11:23:52.699Z,15084
2018-04-28T11:25:02.789Z,13944
2018-04-28T11:26:12.796Z,13716
2018-04-28T11:27:22.541Z,13244
2018-04-28T11:28:31.751Z,12972
2018-04-28T11:29:41.763Z,12680
2018-04-28T11:30:51.775Z,12448
2018-04-28T11:32:01.784Z,12020
2018-04-28T11:33:11.268Z,11536
2018-04-28T11:34:20.468Z,11348
2018-04-28T11:35:30.480Z,11348
2018-04-28T11:36:40.222Z,11396
2018-04-28T11:37:49.976Z,11816
2018-04-28T11:38:59.992Z,12108
2018-04-28T11:40:09.739Z,12288
2018-04-28T11:41:19.214Z,12532
2018-04-28T11:42:29.222Z,12980
2018-04-28T11:43:38.719Z,13660
2018-04-28T11:44:48.194Z,15364
2018-04-28T11:45:57.965Z,16640
2018-04-28T11:47:07.445Z,17376
2018-04-28T11:48:17.187Z,17696
2018-04-28T11:49:27.214Z,19872
2018-04-28T11:50:37.232Z,18880
2018-04-28T11:51:46.981Z,18816
2018-04-28T11:52:56.719Z,20640
2018-04-28T11:54:06.463Z,22464
2018-04-28T11:55:16.207Z,20960
2018-04-28T11:56:26.221Z,20000
2018-04-28T11:57:35.994Z,18208
2018-04-28T11:58:46.010Z,17952
2018-04-28T11:59:56.093Z,18592
2018-04-28T12:01:05.837Z,20864
2018-04-28T12:02:15.589Z,21152
2018-04-28T12:03:25.336Z,20864
2018-04-28T12:04:34.809Z,23904
2018-04-28T12:05:44.445Z,24032
2018-04-28T12:06:54.311Z,24768
2018-04-28T12:08:03.789Z,25536
2018-04-28T12:09:13.531Z,28480
2018-04-28T12:10:23.274Z,28416
2018-04-28T12:11:33.020Z,31488
2018-04-28T12:12:42.989Z,33536
2018-04-28T12:13:53.171Z,33152
2018-04-28T12:15:03.190Z,29888
2018-04-28T12:16:13.213Z,23936
2018-04-28T12:17:23.230Z,23872
2018-04-28T12:18:33.240Z,25312
2018-04-28T12:19:42.992Z,25408
2018-04-28T12:20:53.014Z,30368
2018-04-28T12:22:02.572Z,35264
2018-04-28T12:23:12.056Z,35776
2018-04-28T12:24:21.820Z,35968
2018-04-28T12:25:31.572Z,38176
2018-04-28T12:26:41.583Z,48032
2018-04-28T12:27:51.958Z,48896
2018-04-28T12:29:01.715Z,38432
2018-04-28T12:30:11.025Z,33376
2018-04-28T12:31:20.775Z,39776
2018-04-28T12:32:30.257Z,38592
2018-04-28T12:33:40.008Z,38464
2018-04-28T12:34:50.030Z,34720
2018-04-28T12:35:59.907Z,31584
2018-04-28T12:37:10.199Z,29824
2018-04-28T12:38:20.285Z,26624
2018-04-28T12:39:30.337Z,23680
2018-04-28T12:40:40.359Z,24544
2018-04-28T12:41:50.112Z,28384
2018-04-28T12:42:59.902Z,22304
2018-04-28T12:44:09.649Z,21376
2018-04-28T12:45:19.658Z,21120
2018-04-28T12:46:28.872Z,19616
2018-04-28T12:47:38.621Z,22432
2018-04-28T12:48:48.638Z,25632
2018-04-28T12:49:58.116Z,31488
2018-04-28T12:51:08.133Z,24128
2018-04-28T12:52:17.885Z,25984
2018-04-28T12:53:27.900Z,29312
2018-04-28T12:54:37.652Z,24032
2018-04-28T12:55:47.132Z,27360
2018-04-28T12:56:57.223Z,21824
2018-04-28T12:58:07.231Z,23616
2018-04-28T12:59:17.247Z,25120
2018-04-28T13:00:27.263Z,20064
2018-04-28T13:01:37.014Z,19264
2018-04-28T13:02:46.761Z,18400
2018-04-28T13:03:56.510Z,17728
2018-04-28T13:05:06.530Z,17696
2018-04-28T13:06:16.886Z,18368
2018-04-28T13:07:26.903Z,25792
2018-04-28T13:08:36.649Z,21440
2018-04-28T13:09:46.662Z,19744
2018-04-28T13:10:56.148Z,20128
2018-04-28T13:12:06.180Z,28064
2018-04-28T13:13:15.933Z,23968
2018-04-28T13:14:25.784Z,22336
2018-04-28T13:15:35.804Z,23712
2018-04-28T13:16:45.821Z,38336
2018-04-28T13:17:55.851Z,26592
2018-04-28T13:19:05.870Z,33728
2018-04-28T13:20:15.620Z,37504
2018-04-28T13:21:25.644Z,36000
2018-04-28T13:22:35.422Z,24416
2018-04-28T13:23:45.438Z,22048
2018-04-28T13:24:55.184Z,20768
2018-04-28T13:26:05.205Z,19360
2018-04-28T13:27:14.955Z,18048
2018-04-28T13:28:24.167Z,17024
2018-04-28T13:29:33.397Z,16196
2018-04-28T13:30:43.406Z,15820
2018-04-28T13:31:53.154Z,15984
2018-04-28T13:33:02.903Z,18592
2018-04-28T13:34:12.383Z,25600
2018-04-28T13:35:22.405Z,19648
2018-04-28T13:36:32.155Z,20576
2018-04-28T13:37:41.635Z,23808
2018-04-28T13:38:51.390Z,26112
2018-04-28T13:40:01.403Z,25152
2018-04-28T13:41:11.074Z,25472
2018-04-28T13:42:20.645Z,25824
2018-04-28T13:43:30.398Z,29280
2018-04-28T13:44:40.409Z,32832
2018-04-28T13:45:50.419Z,36768
2018-04-28T13:47:00.434Z,39232
2018-04-28T13:48:10.326Z,35552
2018-04-28T13:49:20.111Z,41088
2018-04-28T13:50:29.594Z,42496
2018-04-28T13:51:39.344Z,51616
2018-04-28T13:52:49.091Z,43808
2018-04-28T13:53:59.107Z,43648
2018-04-28T13:55:08.590Z,39616
2018-04-28T13:56:18.341Z,38720
2018-04-28T13:57:28.358Z,35840
2018-04-28T13:58:38.105Z,31232
2018-04-28T13:59:48.128Z,30656
2018-04-28T14:00:58.143Z,29056
2018-04-28T14:02:07.625Z,32416
2018-04-28T14:03:17.375Z,36352
2018-04-28T14:04:27.130Z,37184
2018-04-28T14:05:37.158Z,34880
2018-04-28T14:06:46.631Z,34656
2018-04-28T14:07:56.656Z,29280
2018-04-28T14:09:06.411Z,26176
2018-04-28T14:10:16.433Z,23328
2018-04-28T14:11:26.182Z,22976
2018-04-28T14:12:35.929Z,22752
2018-04-28T14:13:45.942Z,21568
2018-04-28T14:14:55.691Z,20288
2018-04-28T14:16:04.905Z,22336
2018-04-28T14:17:14.391Z,22400
2018-04-28T14:18:24.429Z,24608
2018-04-28T14:19:34.446Z,26944
2018-04-28T14:20:44.470Z,27360
2018-04-28T14:21:53.955Z,24864
2018-04-28T14:23:03.976Z,30688
2018-04-28T14:24:13.823Z,37024
2018-04-28T14:25:23.572Z,50112
2018-04-28T14:26:33.110Z,54272
2018-04-28T14:27:42.584Z,50112
2018-04-28T14:28:52.065Z,50272
2018-04-28T14:30:02.075Z,46784
2018-04-28T14:31:11.821Z,21696
2018-04-28T14:32:21.032Z,24288
2018-04-28T14:33:30.788Z,61536
2018-04-28T14:34:40.807Z,70560
2018-04-28T14:35:50.564Z,74304
2018-04-28T14:37:00.595Z,78304
2018-04-28T14:38:10.610Z,82208
2018-04-28T14:39:20.626Z,79744
2018-04-28T14:40:30.677Z,80448
2018-04-28T14:41:40.701Z,79872
2018-04-28T14:42:50.730Z,80736
2018-04-28T14:44:00.744Z,83904
2018-04-28T14:45:10.573Z,82880
2018-04-28T14:46:20.728Z,80416
2018-04-28T14:47:30.485Z,74624
2018-04-28T14:48:40.501Z,48864
2018-04-28T14:49:49.987Z,80352
2018-04-28T14:50:59.471Z,71104
2018-04-28T14:52:09.229Z,76128
2018-04-28T14:53:18.711Z,21120
2018-04-28T14:54:28.465Z,65088
2018-04-28T14:55:38.493Z,19584
2018-04-28T14:56:48.522Z,14116
2018-04-28T14:57:58.539Z,12680
2018-04-28T14:59:08.396Z,11288
2018-04-28T15:00:18.430Z,10272
2018-04-28T15:01:28.582Z,9780
2018-04-28T15:02:38.610Z,10012
2018-04-28T15:03:48.630Z,11064
2018-04-28T15:04:58.648Z,15868
2018-04-28T15:06:08.399Z,12036
2018-04-28T15:07:18.409Z,15388
2018-04-28T15:08:28.156Z,13640
2018-04-28T15:09:38.148Z,13312
2018-04-28T15:10:48.315Z,13948
2018-04-28T15:11:58.072Z,14280
2018-04-28T15:13:07.827Z,12704
2018-04-28T15:14:17.840Z,11096
2018-04-28T15:15:27.587Z,11180
2018-04-28T15:16:37.347Z,11488
2018-04-28T15:17:47.400Z,11000
2018-04-28T15:18:56.911Z,10596
2018-04-28T15:20:06.393Z,10200
2018-04-28T15:21:16.143Z,9756
2018-04-28T15:22:25.896Z,9292
2018-04-28T15:23:35.640Z,8484
2018-04-28T15:24:45.651Z,7208
2018-04-28T15:25:55.398Z,5948
2018-04-28T15:27:05.408Z,5084
2018-04-28T15:28:15.227Z,4792
2018-04-28T15:29:25.280Z,4724
2018-04-28T15:30:35.023Z,4668
2018-04-28T15:31:44.764Z,4520
2018-04-28T15:32:54.775Z,4368
2018-04-28T15:34:04.539Z,4328
2018-04-28T15:35:14.028Z,4468
2018-04-28T15:36:24.068Z,4680
2018-04-28T15:37:33.810Z,5052
2018-04-28T15:38:43.831Z,5416